Sweetwater, Texas
Current Conditions -  °F | °C
As of 3:55 AM on Friday 19 Dec 2014 (Local Time) from KSWW Reporting Station
Overcast Overcast  
Wind Chill: 36°   Ceiling: 700
Heat Index: 41°   Visibility: 10mi
Dew Point: 38°   Wind: 7mph
Humidity: 89%   Direction: 20°NNE
Pressure: 30.17"   Gusts: NA
Location:  32.47°N, 100.39°W
Report Text: KSWW 190955Z AUTO 02006KT 10SM OVC007 05/03 A3017 RMK AO2 T00480031
Loading
Personal Weather Stations






























Interactive Weather Map New forecast layout! Learn more

10-Day Weather Forecast

Advertisements
Track Severe Weather on mobile